Time;durP1;ratioP1;P1;durP2;ratioP2;P2;SDS_P1;SDS_P2;PMS_P1;PMS_P2;Temp;Humidity;BMP_temperature;BMP_pressure;BME280_temperature;BME280_humidity;BME280_pressure;Samples;Min_cycle;Max_cycle;Signal;HPM_P1;HPM_P2
2021/05/27 00:00:24;;;;;;;9.45;3.22;;;;;;;10.56;99.69;97848.66;5054326;28;20068;-74
2021/05/27 00:02:50;;;;;;;5.22;3.13;;;;;;;10.48;99.77;97854.00;5055920;28;20043;-73
2021/05/27 00:05:16;;;;;;;4.10;2.58;;;;;;;10.54;100.00;97844.59;5056042;28;20018;-74
2021/05/27 00:07:42;;;;;;;5.82;2.80;;;;;;;10.53;100.00;97854.72;5056575;28;20031;-75
2021/05/27 00:10:09;;;;;;;5.18;3.33;;;;;;;10.51;100.00;97854.22;5056259;28;20389;-75
2021/05/27 00:12:34;;;;;;;3.67;2.80;;;;;;;10.49;100.00;97853.72;5073821;28;20028;-74
2021/05/27 00:15:00;;;;;;;7.35;3.22;;;;;;;10.42;100.00;97858.72;5073232;28;20024;-74
2021/05/27 00:17:26;;;;;;;2.97;2.38;;;;;;;10.42;100.00;97857.91;5072469;28;20032;-73
2021/05/27 00:19:52;;;;;;;8.27;3.90;;;;;;;10.48;100.00;97863.00;5076914;28;20020;-73
2021/05/27 00:22:18;;;;;;;4.25;3.08;;;;;;;10.42;99.89;97855.19;5082039;28;20563;-74
2021/05/27 00:24:44;;;;;;;5.97;2.90;;;;;;;10.33;100.00;97855.03;5079848;28;20041;-74
2021/05/27 00:27:09;;;;;;;6.70;3.13;;;;;;;10.22;100.00;97848.09;5072967;28;20476;-76
2021/05/27 00:29:35;;;;;;;7.45;2.92;;;;;;;10.21;100.00;97847.25;5072718;28;20046;-73
2021/05/27 00:32:00;;;;;;;5.47;3.17;;;;;;;10.25;100.00;97854.88;5073462;28;20033;-73
2021/05/27 00:34:26;;;;;;;8.77;3.40;;;;;;;10.27;100.00;97848.03;5073701;28;20020;-73
2021/05/27 00:36:52;;;;;;;8.00;3.22;;;;;;;10.35;100.00;97847.34;5074493;28;20032;-75
2021/05/27 00:39:17;;;;;;;6.50;3.17;;;;;;;10.34;100.00;97845.72;5072986;28;20032;-74
2021/05/27 00:41:43;;;;;;;5.70;3.28;;;;;;;10.33;100.00;97852.31;5073290;28;20453;-75
2021/05/27 00:44:24;;;;;;;3.90;3.47;;;;;;;10.28;100.00;97852.38;5073137;28;20031;-78
2021/05/27 00:46:51;;;;;;;5.30;2.72;;;;;;;10.34;100.00;97842.19;5054227;28;20119;-75
2021/05/27 00:49:16;;;;;;;4.45;2.63;;;;;;;10.26;100.00;97854.59;5085461;28;20028;-78
2021/05/27 00:51:44;;;;;;;5.00;3.42;;;;;;;9.97;100.00;97851.13;5075922;28;20039;-78
2021/05/27 00:54:10;;;;;;;5.70;3.33;;;;;;;9.98;100.00;97845.41;5074714;28;20024;-75
2021/05/27 00:56:36;;;;;;;4.85;2.80;;;;;;;9.85;100.00;97837.91;5056673;28;20818;-75
2021/05/27 00:59:02;;;;;;;10.95;3.35;;;;;;;9.92;100.00;97843.03;5074630;28;20066;-77
2021/05/27 01:01:27;;;;;;;7.15;3.00;;;;;;;9.92;100.00;97843.03;5064795;28;20044;-76
2021/05/27 01:03:53;;;;;;;3.60;2.53;;;;;;;9.97;100.00;97849.22;5065415;28;20040;-76
2021/05/27 01:06:18;;;;;;;3.05;2.78;;;;;;;9.97;100.00;97859.34;5056770;28;20117;-76
2021/05/27 01:08:44;;;;;;;5.43;2.67;;;;;;;9.95;100.00;97861.56;5054559;28;20652;-76
2021/05/27 01:11:10;;;;;;;5.88;3.38;;;;;;;9.81;100.00;97850.53;5054019;28;20025;-77
2021/05/27 01:13:35;;;;;;;7.13;4.05;;;;;;;9.81;100.00;97846.97;5054118;28;20029;-77
2021/05/27 01:16:00;;;;;;;3.60;2.72;;;;;;;9.81;100.00;97849.72;5053625;28;20024;-78
2021/05/27 01:18:27;;;;;;;5.07;3.47;;;;;;;9.77;100.00;97862.34;5054333;28;20025;-77
2021/05/27 01:20:55;;;;;;;5.80;2.83;;;;;;;9.71;100.00;97860.78;5054865;28;20029;-75
2021/05/27 01:23:22;;;;;;;4.68;3.13;;;;;;;9.66;100.00;97867.94;5053137;28;20029;-76
2021/05/27 01:25:51;;;;;;;4.78;3.15;;;;;;;9.71;100.00;97861.56;5053850;28;20024;-76
2021/05/27 01:28:17;;;;;;;7.50;3.65;;;;;;;9.77;100.00;97867.81;5057412;28;20560;-77
2021/05/27 01:30:45;;;;;;;5.07;2.78;;;;;;;9.75;100.00;97859.06;5059491;28;20021;-78
2021/05/27 01:33:12;;;;;;;5.80;2.92;;;;;;;9.55;100.00;97865.63;5036907;28;20032;-80
2021/05/27 01:35:38;;;;;;;4.18;3.05;;;;;;;9.52;100.00;97861.53;5074858;28;20044;-78
2021/05/27 01:38:14;;;;;;;7.43;3.28;;;;;;;9.59;100.00;97851.06;5074540;28;20039;-75
2021/05/27 01:40:40;;;;;;;;;;;;;;;9.63;100.00;97860.31;5041234;28;20660;-75
2021/05/27 01:43:05;;;;;;;4.30;3.10;;;;;;;9.68;100.00;97852.06;5056536;28;19913;-76
2021/05/27 01:45:31;;;;;;;9.55;3.35;;;;;;;9.56;100.00;97854.38;5056753;28;20065;-76
2021/05/27 01:47:57;;;;;;;4.25;2.97;;;;;;;9.61;100.00;97859.81;5061240;28;20375;-76
2021/05/27 01:50:23;;;;;;;6.57;3.17;;;;;;;9.60;100.00;97871.00;5055889;28;20025;-75
2021/05/27 01:52:49;;;;;;;4.55;4.07;;;;;;;9.59;100.00;97872.91;5043342;28;20070;-76
2021/05/27 01:55:15;;;;;;;4.45;3.38;;;;;;;9.69;100.00;97872.81;5071941;28;20029;-76
2021/05/27 01:57:40;;;;;;;8.38;3.17;;;;;;;9.56;100.00;97870.78;5071955;28;20530;-75
2021/05/27 02:00:07;;;;;;;4.45;3.00;;;;;;;9.60;100.00;97876.47;5072247;28;20032;-78
2021/05/27 02:02:32;;;;;;;4.15;2.95;;;;;;;9.60;100.00;97879.19;5071530;28;20045;-76
2021/05/27 02:04:57;;;;;;;4.53;2.88;;;;;;;9.67;100.00;97885.94;5071586;28;20388;-78
2021/05/27 02:07:23;;;;;;;4.65;4.03;;;;;;;9.64;100.00;97888.44;5071808;28;20046;-76
2021/05/27 02:09:48;;;;;;;5.40;2.78;;;;;;;9.66;100.00;97883.50;5070995;28;20070;-76
2021/05/27 02:12:14;;;;;;;4.43;3.50;;;;;;;9.60;100.00;97882.75;5071055;28;20047;-77
2021/05/27 02:14:39;;;;;;;3.45;3.10;;;;;;;9.64;100.00;97885.72;5070135;28;20492;-81
2021/05/27 02:17:05;;;;;;;4.50;2.83;;;;;;;9.64;100.00;97892.00;5071462;28;20024;-76
2021/05/27 02:19:30;;;;;;;5.35;3.33;;;;;;;9.57;100.00;97882.50;5071662;28;20105;-76
2021/05/27 02:21:55;;;;;;;5.90;3.80;;;;;;;9.47;100.00;97880.69;5058929;28;20044;-79
2021/05/27 02:24:21;;;;;;;10.07;3.88;;;;;;;9.45;100.00;97876.66;5051164;28;20033;-80
2021/05/27 02:26:46;;;;;;;9.38;4.28;;;;;;;9.43;100.00;97873.41;5051896;28;20056;-80
2021/05/27 02:29:12;;;;;;;8.40;4.25;;;;;;;9.53;100.00;97873.25;5051423;28;20415;-81
2021/05/27 02:31:38;;;;;;;8.02;4.72;;;;;;;9.47;100.00;97866.22;5051260;28;20473;-78
2021/05/27 02:34:04;;;;;;;4.93;4.50;;;;;;;9.40;100.00;97873.94;5050085;28;20059;-83
2021/05/27 02:36:30;;;;;;;6.55;4.95;;;;;;;9.32;100.00;97878.16;5050913;28;20465;-77
2021/05/27 02:38:56;;;;;;;5.57;4.68;;;;;;;9.21;100.00;97875.81;5050756;28;20048;-79
2021/05/27 02:41:23;;;;;;;8.55;5.45;;;;;;;9.12;100.00;97875.59;5050426;28;20025;-78
2021/05/27 02:43:49;;;;;;;8.65;4.28;;;;;;;9.17;100.00;97877.47;5049983;28;20211;-77
2021/05/27 02:46:15;;;;;;;7.13;4.38;;;;;;;9.22;100.00;97870.06;5050767;28;20021;-84
2021/05/27 02:48:41;;;;;;;10.57;4.80;;;;;;;9.29;100.00;97880.63;5050752;28;20033;-76
2021/05/27 02:51:07;;;;;;;5.18;3.80;;;;;;;9.31;100.00;97875.69;5050825;28;20060;-81
2021/05/27 02:53:32;;;;;;;5.05;4.30;;;;;;;9.34;100.00;97878.66;5051150;28;20112;-77
2021/05/27 02:55:58;;;;;;;10.52;4.30;;;;;;;9.27;100.00;97870.00;5051080;28;20136;-79
2021/05/27 02:58:23;;;;;;;10.20;4.57;;;;;;;9.18;100.00;97874.44;5050989;28;20044;-80
2021/05/27 03:00:49;;;;;;;9.00;5.40;;;;;;;9.25;100.00;97877.66;5050858;28;20045;-81
2021/05/27 03:03:20;;;;;;;9.07;5.13;;;;;;;9.30;100.00;97872.16;5032358;28;20037;-79
2021/05/27 03:05:46;;;;;;;8.30;5.07;;;;;;;9.20;100.00;97877.72;5050439;28;20051;-79
2021/05/27 03:08:12;;;;;;;5.57;4.75;;;;;;;9.16;100.00;97882.13;5050874;28;20088;-82
2021/05/27 03:10:37;;;;;;;6.30;4.25;;;;;;;9.12;100.00;97873.69;5033063;28;20035;-78
2021/05/27 03:13:03;;;;;;;7.70;4.22;;;;;;;9.19;100.00;97883.47;5032858;28;20095;-79
2021/05/27 03:15:28;;;;;;;9.23;4.80;;;;;;;9.13;100.00;97878.06;5033434;28;20029;-78
2021/05/27 03:17:53;;;;;;;6.13;4.10;;;;;;;9.00;100.00;97876.00;5051408;28;20029;-76
2021/05/27 03:20:19;;;;;;;8.15;3.60;;;;;;;9.07;100.00;97881.94;5051377;28;20486;-78
2021/05/27 03:22:44;;;;;;;4.40;3.80;;;;;;;9.12;100.00;97886.53;5054597;28;20025;-79
2021/05/27 03:25:11;;;;;;;4.15;3.00;;;;;;;9.12;100.00;97889.25;5054108;28;20037;-81
2021/05/27 03:27:36;;;;;;;4.97;3.92;;;;;;;9.07;100.00;97881.13;5054802;28;20031;-77
2021/05/27 03:30:03;;;;;;;8.38;3.63;;;;;;;9.06;100.00;97879.47;5054386;28;20100;-83
2021/05/27 03:32:28;;;;;;;4.88;3.35;;;;;;;9.18;100.00;97882.63;5059767;28;20488;-78
2021/05/27 03:34:54;;;;;;;5.18;3.40;;;;;;;9.35;100.00;97888.47;5074132;28;20078;-81
2021/05/27 03:37:19;;;;;;;12.48;3.80;;;;;;;9.20;100.00;97888.63;5074259;28;20115;-80
2021/05/27 03:40:10;;;;;;;6.82;3.45;;;;;;;9.32;100.00;97894.53;5074195;28;20347;-79
2021/05/27 03:42:30;;;;;;;4.60;4.05;;;;;;;9.48;100.00;97893.25;5074008;28;20040;-87
2021/05/27 03:44:56;;;;;;;3.67;3.35;;;;;;;9.97;99.20;97889.38;5055525;28;20025;-80
2021/05/27 03:47:21;;;;;;;5.53;3.60;;;;;;;10.28;96.21;97885.16;5074178;28;20481;-80
2021/05/27 03:49:47;;;;;;;7.53;3.17;;;;;;;10.62;94.27;97896.69;5074823;28;20036;-84
2021/05/27 03:52:12;;;;;;;5.38;2.95;;;;;;;10.77;93.08;97893.72;5075913;28;20491;-85
2021/05/27 03:54:37;;;;;;;7.57;3.80;;;;;;;10.93;92.88;97901.69;5075294;28;20525;-80
2021/05/27 03:57:03;;;;;;;5.15;3.72;;;;;;;11.05;91.77;97896.56;5074632;28;20032;-83
2021/05/27 04:02:13;;;;;;;6.32;3.10;;;;;;;11.25;90.35;97893.47;5077723;28;20055;-88
2021/05/27 04:07:24;;;;;;;5.45;3.42;;;;;;;10.82;92.74;97894.75;5070172;28;20522;-83
2021/05/27 04:09:50;;;;;;;5.85;2.50;;;;;;;10.80;93.51;97896.97;5062657;28;20057;-80
2021/05/27 04:17:43;;;;;;;5.95;2.88;;;;;;;10.76;93.82;97910.44;5072782;28;20055;-83
2021/05/27 04:20:10;;;;;;;7.47;3.78;;;;;;;11.02;92.91;97908.13;5070488;28;20029;-86
2021/05/27 04:22:38;;;;;;;5.43;3.03;;;;;;;11.70;89.47;97906.34;5061142;28;20045;-77
2021/05/27 04:25:04;;;;;;;6.28;3.40;;;;;;;12.04;87.06;97914.16;5055112;28;20077;-87
2021/05/27 04:27:29;;;;;;;4.03;3.00;;;;;;;11.99;86.25;97919.75;5069066;28;20116;-80
2021/05/27 04:29:55;;;;;;;6.38;2.95;;;;;;;12.07;86.61;97923.69;5049459;28;20029;-82
2021/05/27 04:35:05;;;;;;;10.27;3.47;;;;;;;11.55;89.46;97914.00;5063374;28;20135;-82
2021/05/27 04:37:30;;;;;;;7.32;3.55;;;;;;;11.32;89.62;97910.31;5055061;28;20025;-80
2021/05/27 04:39:56;;;;;;;7.53;3.88;;;;;;;11.14;90.80;97905.72;5060414;28;20082;-81
2021/05/27 04:42:21;;;;;;;4.25;3.20;;;;;;;11.11;92.32;97917.25;5046155;28;20040;-84
2021/05/27 04:45:14;;;;;;;8.02;3.17;;;;;;;11.07;91.07;97908.00;5060994;28;20025;-87
2021/05/27 04:47:39;;;;;;;10.25;3.55;;;;;;;10.96;92.36;97912.06;5040651;28;20029;-80
2021/05/27 04:50:07;;;;;;;5.72;3.50;;;;;;;11.05;92.96;97913.00;5060339;28;20028;-78
2021/05/27 04:52:33;;;;;;;11.48;4.82;;;;;;;11.09;91.49;97908.53;5060385;28;20017;-79
2021/05/27 04:54:59;;;;;;;8.90;3.92;;;;;;;11.21;90.80;97917.09;5061139;28;20074;-81
2021/05/27 04:57:25;;;;;;;13.57;4.50;;;;;;;11.52;89.71;97920.09;5061009;28;20113;-83
2021/05/27 04:59:50;;;;;;;13.57;3.50;;;;;;;11.61;88.02;97924.56;5062664;28;20166;-88
2021/05/27 05:02:16;;;;;;;6.50;3.30;;;;;;;11.52;88.90;97920.09;5064367;28;20040;-91
2021/05/27 05:04:41;;;;;;;5.70;3.58;;;;;;;11.53;88.85;97929.91;5040508;28;20419;-89
2021/05/27 05:07:07;;;;;;;5.05;3.60;;;;;;;11.66;88.76;97927.22;5062402;28;20504;-89
2021/05/27 05:09:32;;;;;;;4.65;3.17;;;;;;;11.68;87.87;97919.50;5063552;28;20029;-87
2021/05/27 05:11:57;;;;;;;5.20;3.13;;;;;;;11.69;87.25;97926.59;5042558;28;20035;-88
2021/05/27 05:14:26;;;;;;;6.30;3.22;;;;;;;11.71;87.55;97927.16;5046540;28;20044;-90
2021/05/27 05:16:51;;;;;;;7.40;3.95;;;;;;;11.93;87.79;97925.66;5065172;28;20025;-86
2021/05/27 05:19:17;;;;;;;6.50;3.47;;;;;;;12.04;86.67;97938.00;5044316;28;20020;-82
2021/05/27 05:21:43;;;;;;;5.25;3.47;;;;;;;12.43;84.65;97935.56;5047736;28;20023;-86
2021/05/27 05:24:08;;;;;;;7.10;3.05;;;;;;;12.62;84.29;97928.00;5062175;28;20037;-88
2021/05/27 05:26:34;;;;;;;8.13;3.65;;;;;;;12.46;85.05;97923.97;5047456;28;20005;-87
2021/05/27 05:28:59;;;;;;;4.47;3.08;;;;;;;12.53;84.80;97918.84;5061457;28;20017;-89
2021/05/27 05:31:24;;;;;;;4.10;2.90;;;;;;;12.54;85.32;97920.47;5065920;28;20405;-87
2021/05/27 05:33:54;;;;;;;8.57;3.47;;;;;;;12.87;83.08;97921.09;5061403;28;20033;-87
2021/05/27 05:36:20;;;;;;;6.95;3.20;;;;;;;12.75;82.75;97923.56;5059162;28;20029;-79
2021/05/27 05:38:46;;;;;;;7.32;3.25;;;;;;;12.99;81.22;97928.78;5063308;28;20008;-82
2021/05/27 05:41:11;;;;;;;4.63;3.33;;;;;;;12.92;81.38;97926.47;5035387;28;20024;-81
2021/05/27 05:43:37;;;;;;;5.18;2.85;;;;;;;13.20;80.90;97916.19;5066235;28;20058;-73
2021/05/27 05:46:02;;;;;;;6.30;4.78;;;;;;;12.90;80.79;97912.25;5044564;28;20036;-86
2021/05/27 05:48:27;;;;;;;5.03;3.35;;;;;;;13.14;79.98;97922.94;5046955;28;20017;-76
2021/05/27 05:50:57;;;;;;;5.97;3.15;;;;;;;13.01;80.71;97926.53;5058766;28;20040;-74
2021/05/27 05:53:23;;;;;;;5.85;3.20;;;;;;;13.14;81.53;97925.69;5051658;28;20087;-74
2021/05/27 05:55:51;;;;;;;8.27;3.10;;;;;;;13.93;77.20;97930.19;5052092;28;20033;-75
2021/05/27 05:58:17;;;;;;;6.38;3.47;;;;;;;14.04;75.97;97930.69;5060867;28;20446;-75
2021/05/27 06:00:44;;;;;;;5.57;3.70;;;;;;;13.52;79.31;97928.84;5070702;28;20139;-85
2021/05/27 06:03:11;;;;;;;8.90;5.97;;;;;;;13.57;81.17;97932.25;5074725;28;20052;-82
2021/05/27 06:05:36;;;;;;;8.48;4.68;;;;;;;13.56;83.48;97930.66;5072735;28;20032;-75
2021/05/27 06:08:02;;;;;;;8.82;4.50;;;;;;;14.18;77.52;97925.06;5054148;28;20495;-75
2021/05/27 06:10:28;;;;;;;9.48;4.78;;;;;;;14.03;77.88;97925.53;5060339;28;20031;-75
2021/05/27 06:12:57;;;;;;;12.55;5.97;;;;;;;13.86;76.89;97932.56;5071760;28;20068;-74
2021/05/27 06:15:24;;;;;;;11.02;5.25;;;;;;;14.29;77.30;97929.97;5075916;28;20020;-84
2021/05/27 06:17:57;;;;;;;5.93;4.70;;;;;;;14.62;75.61;97930.38;5076987;28;20032;-89
2021/05/27 06:20:23;;;;;;;9.95;3.97;;;;;;;14.62;73.70;97933.13;5070058;28;20054;-84
2021/05/27 06:22:49;;;;;;;11.32;4.40;;;;;;;14.69;74.18;97922.44;5061840;28;20036;-80
2021/05/27 06:25:15;;;;;;;9.13;3.65;;;;;;;14.57;76.49;97930.53;5063888;28;20033;-84
2021/05/27 06:27:41;;;;;;;8.88;4.60;;;;;;;15.18;75.03;97923.09;5060752;28;20032;-87
2021/05/27 06:30:09;;;;;;;8.45;4.88;;;;;;;15.05;74.59;97924.06;5061455;28;20029;-92
2021/05/27 06:32:36;;;;;;;9.10;4.55;;;;;;;15.31;70.84;97927.63;5064315;28;20059;-87
2021/05/27 06:35:05;;;;;;;6.13;4.45;;;;;;;15.03;72.13;97922.44;5064437;28;20032;-88
2021/05/27 06:37:30;;;;;;;8.25;4.30;;;;;;;14.86;72.27;97919.72;5065233;28;21464;-82
2021/05/27 06:39:56;;;;;;;6.13;4.50;;;;;;;15.10;71.38;97916.44;5064297;28;20055;-85
2021/05/27 06:42:21;;;;;;;6.30;5.03;;;;;;;15.38;70.27;97916.91;5070210;28;20119;-91
2021/05/27 06:44:50;;;;;;;5.50;4.30;;;;;;;15.49;71.14;97915.44;5070633;28;20020;-91
2021/05/27 06:47:15;;;;;;;5.13;4.20;;;;;;;15.40;69.70;97920.16;5052130;28;20074;-91
2021/05/27 06:49:40;;;;;;;7.45;3.65;;;;;;;15.12;71.46;97916.13;5067879;28;20048;-91
2021/05/27 06:52:10;;;;;;;6.05;4.15;;;;;;;14.94;73.85;97916.13;5072541;28;20045;-86
2021/05/27 06:54:35;;;;;;;9.07;4.05;;;;;;;15.06;72.90;97917.44;5067496;28;20100;-83
2021/05/27 06:57:01;;;;;;;6.05;3.63;;;;;;;15.31;69.95;97914.66;5071226;28;20048;-87
2021/05/27 06:59:30;;;;;;;7.28;3.78;;;;;;;15.67;70.74;97911.50;5054782;28;20052;-93
2021/05/27 07:01:55;;;;;;;16.02;3.55;;;;;;;16.09;69.68;97912.47;5071181;28;20048;-86
2021/05/27 07:04:21;;;;;;;4.65;2.00;;;;;;;16.14;65.60;97917.00;5069737;28;20037;-90
2021/05/27 07:06:47;;;;;;;2.75;1.85;;;;;;;16.26;61.68;97917.91;5066971;28;20029;-88
2021/05/27 07:09:13;;;;;;;3.53;2.28;;;;;;;16.39;62.14;97927.91;5049524;28;20028;-85
2021/05/27 07:11:39;;;;;;;2.45;1.63;;;;;;;16.37;63.06;97915.56;5067421;28;20025;-86
2021/05/27 07:14:04;;;;;;;3.10;1.92;;;;;;;16.78;62.79;97912.91;5063697;28;20061;-74
2021/05/27 07:16:30;;;;;;;3.67;2.28;;;;;;;16.95;63.77;97917.47;5061404;28;20144;-75
2021/05/27 07:18:55;;;;;;;3.47;2.33;;;;;;;17.38;60.97;97914.31;5063602;28;20113;-74
2021/05/27 07:21:21;;;;;;;2.47;1.77;;;;;;;17.22;60.01;97911.38;5061001;28;20044;-77
2021/05/27 07:23:46;;;;;;;6.40;2.17;;;;;;;17.36;60.47;97913.84;5057740;28;20040;-73
2021/05/27 07:26:12;;;;;;;6.93;2.40;;;;;;;17.45;61.29;97914.56;5062731;28;20032;-75
2021/05/27 07:28:37;;;;;;;7.55;2.05;;;;;;;17.73;59.80;97904.53;5055782;28;20017;-76
2021/05/27 07:31:04;;;;;;;4.50;2.10;;;;;;;18.17;59.05;97902.84;5064253;28;20025;-74
2021/05/27 07:33:29;;;;;;;6.55;3.05;;;;;;;18.19;56.94;97911.63;5063361;28;20074;-74
2021/05/27 07:35:55;;;;;;;4.60;2.33;;;;;;;18.08;56.46;97905.72;5061409;28;20025;-79
2021/05/27 07:38:20;;;;;;;6.78;2.35;;;;;;;18.17;58.14;97909.19;5043370;28;20024;-80
2021/05/27 07:40:46;;;;;;;6.55;2.58;;;;;;;18.67;57.76;97908.00;5059454;28;20008;-79
2021/05/27 07:43:12;;;;;;;3.47;2.58;;;;;;;18.57;58.13;97902.97;5061089;28;20029;-84
2021/05/27 07:45:38;;;;;;;8.27;2.40;;;;;;;18.55;58.66;97902.50;5065510;28;20044;-80
2021/05/27 07:48:04;;;;;;;6.50;2.72;;;;;;;18.28;59.30;97908.72;5060360;28;20013;-81
2021/05/27 07:50:29;;;;;;;5.72;2.90;;;;;;;18.34;58.01;97908.16;5059640;28;20074;-82
2021/05/27 07:52:55;;;;;;;6.60;2.75;;;;;;;18.69;57.70;97901.00;5062010;28;20040;-80
2021/05/27 07:55:25;;;;;;;7.13;2.55;;;;;;;18.76;57.42;97903.16;5056972;28;20386;-78
2021/05/27 07:57:51;;;;;;;8.10;2.88;;;;;;;19.46;55.92;97903.63;5063619;28;20027;-83
2021/05/27 08:00:17;;;;;;;6.65;2.88;;;;;;;20.03;54.63;97906.75;5063100;28;20024;-82
2021/05/27 08:02:43;;;;;;;5.03;2.28;;;;;;;20.89;51.41;97899.31;5057716;28;20049;-76
2021/05/27 08:05:10;;;;;;;6.97;3.00;;;;;;;21.59;47.93;97902.75;5044490;28;20079;-81
2021/05/27 08:07:35;;;;;;;4.63;2.40;;;;;;;22.68;45.85;97897.50;5060005;28;20115;-79
2021/05/27 08:10:01;;;;;;;8.95;2.20;;;;;;;23.34;46.75;97894.00;5047651;28;20120;-80
2021/05/27 08:12:26;;;;;;;3.55;2.10;;;;;;;22.89;43.15;97892.22;5071761;28;20032;-76
2021/05/27 08:14:52;;;;;;;4.75;2.47;;;;;;;23.81;41.88;97893.34;5071543;28;20029;-75
2021/05/27 08:17:17;;;;;;;4.55;2.20;;;;;;;24.65;40.88;97895.31;5072577;28;20050;-76
2021/05/27 08:19:43;;;;;;;4.25;2.13;;;;;;;25.34;38.12;97896.13;5073295;28;20029;-73
2021/05/27 08:22:09;;;;;;;4.95;2.30;;;;;;;24.01;40.28;97900.34;5079628;28;20052;-75
2021/05/27 08:24:35;;;;;;;4.65;2.20;;;;;;;24.57;39.86;97896.44;5094051;28;20020;-76
2021/05/27 08:27:01;;;;;;;7.50;2.45;;;;;;;24.23;40.20;97890.19;5085623;28;20036;-74
2021/05/27 08:29:26;;;;;;;5.35;2.28;;;;;;;25.62;39.51;97903.84;5052305;28;20077;-77
2021/05/27 08:31:51;;;;;;;4.50;1.80;;;;;;;26.27;39.28;97909.22;5051410;28;21561;-74
2021/05/27 08:34:19;;;;;;;2.67;1.60;;;;;;;26.70;36.99;97901.56;5052185;28;20063;-74
2021/05/27 08:36:45;;;;;;;4.57;2.03;;;;;;;27.04;37.89;97899.94;5053316;28;20063;-76
2021/05/27 08:39:11;;;;;;;3.20;1.85;;;;;;;26.26;35.38;97908.41;5053575;28;20029;-76
2021/05/27 08:41:36;;;;;;;6.80;2.33;;;;;;;25.86;37.56;97898.31;5035306;28;20486;-77
2021/05/27 08:44:03;;;;;;;4.60;2.17;;;;;;;26.56;35.61;97886.34;5061641;28;20032;-75
2021/05/27 08:46:30;;;;;;;2.83;2.00;;;;;;;27.41;34.83;97891.75;5076504;28;20024;-75
2021/05/27 08:48:55;;;;;;;3.15;2.20;;;;;;;25.80;34.87;97885.88;5077887;28;20046;-75
2021/05/27 08:51:21;;;;;;;3.10;1.80;;;;;;;25.25;37.26;97895.69;5087265;28;20020;-75
2021/05/27 08:53:46;;;;;;;4.25;1.50;;;;;;;25.49;38.11;97890.22;5072117;28;20032;-75
2021/05/27 08:56:12;;;;;;;6.28;2.10;;;;;;;25.98;35.70;97897.13;5071259;28;20032;-78
2021/05/27 08:58:39;;;;;;;8.75;2.05;;;;;;;27.21;34.18;97893.47;5071976;28;20040;-76
2021/05/27 09:01:06;;;;;;;5.60;1.70;;;;;;;26.99;33.15;97892.72;5062269;28;20055;-77
2021/05/27 09:03:42;;;;;;;4.65;1.60;;;;;;;27.29;33.22;97895.03;5092526;28;20109;-79
2021/05/27 09:06:10;;;;;;;3.20;2.22;;;;;;;26.12;35.52;97888.75;5091573;28;20084;-77
2021/05/27 09:08:38;;;;;;;4.13;1.70;;;;;;;26.63;36.56;97891.16;5091455;28;20020;-77
2021/05/27 09:11:10;;;;;;;3.30;2.20;;;;;;;26.15;35.40;97896.34;5091679;28;20388;-78
2021/05/27 09:13:37;;;;;;;4.85;1.90;;;;;;;26.54;34.20;97897.19;5091020;28;20020;-77
2021/05/27 09:16:12;;;;;;;3.85;1.98;;;;;;;26.98;33.50;97890.31;5091184;28;20031;-75
2021/05/27 09:18:40;;;;;;;3.15;2.08;;;;;;;26.55;33.94;97884.75;5090136;28;20442;-79
2021/05/27 09:21:11;;;;;;;3.97;2.28;;;;;;;26.69;34.27;97883.16;5081465;28;20107;-79
2021/05/27 09:23:58;;;;;;;5.07;2.08;;;;;;;27.38;33.22;97880.56;5082814;28;20036;-76
2021/05/27 09:26:23;;;;;;;6.57;2.85;;;;;;;27.18;32.55;97883.03;5091031;28;20484;-77
2021/05/27 09:28:49;;;;;;;6.68;2.60;;;;;;;27.18;32.60;97877.44;5093246;28;20020;-72
2021/05/27 09:31:18;;;;;;;8.10;2.33;;;;;;;26.33;33.43;97871.94;5091046;28;20047;-76
2021/05/27 09:33:46;;;;;;;2.33;2.00;;;;;;;26.45;33.79;97879.94;5082580;28;20380;-77
2021/05/27 09:36:14;;;;;;;3.88;2.88;;;;;;;25.88;33.79;97886.69;5082633;28;20016;-79
2021/05/27 09:38:45;;;;;;;2.05;1.55;;;;;;;26.05;32.95;97878.31;5078480;28;20065;-77
2021/05/27 09:41:18;;;;;;;3.05;1.63;;;;;;;25.69;34.23;97884.25;5079573;28;20028;-78
2021/05/27 09:43:52;;;;;;;2.90;1.77;;;;;;;27.18;30.41;97877.44;5077658;28;20380;-79
2021/05/27 09:46:18;;;;;;;4.03;1.85;;;;;;;25.68;32.08;97869.44;5077497;28;20020;-78
2021/05/27 09:48:47;;;;;;;4.60;2.05;;;;;;;26.46;31.81;97863.91;5078581;28;20016;-77
2021/05/27 09:51:26;;;;;;;2.90;2.38;;;;;;;27.64;30.64;97866.78;5079821;28;20028;-77
2021/05/27 09:53:53;;;;;;;2.95;1.80;;;;;;;29.01;28.02;97854.81;5080022;28;20020;-77
2021/05/27 09:56:31;;;;;;;3.35;1.40;;;;;;;27.10;30.65;97850.56;5079948;28;20024;-80
2021/05/27 09:58:58;;;;;;;4.10;1.58;;;;;;;26.36;33.24;97845.09;5082773;28;20286;-75
2021/05/27 10:01:23;;;;;;;2.90;1.60;;;;;;;27.60;30.25;97840.72;5071407;28;20052;-77
2021/05/27 10:03:48;;;;;;;2.72;1.33;;;;;;;26.30;33.24;97833.47;5059422;28;20366;-75
2021/05/27 10:06:14;;;;;;;2.25;1.27;;;;;;;25.46;35.42;97834.94;5056809;28;20029;-78
2021/05/27 10:08:54;;;;;;;6.63;1.80;;;;;;;25.17;35.92;97841.63;5045004;28;20085;-81
2021/05/27 10:11:24;;;;;;;3.53;2.03;;;;;;;25.42;35.08;97830.50;5060398;28;20120;-77
2021/05/27 10:13:51;;;;;;;3.33;2.55;;;;;;;25.19;35.76;97838.44;5061127;28;20064;-80
2021/05/27 10:16:19;;;;;;;3.35;1.65;;;;;;;25.95;34.37;97827.81;5058459;28;20029;-83
2021/05/27 10:18:45;;;;;;;1.65;1.30;;;;;;;26.85;33.41;97832.97;5058891;28;20494;-77
2021/05/27 10:21:11;;;;;;;2.55;1.50;;;;;;;26.38;33.91;97829.44;5058323;28;20020;-78
2021/05/27 10:23:37;;;;;;;3.38;1.58;;;;;;;26.43;34.37;97826.25;5061151;28;20028;-75
2021/05/27 10:26:04;;;;;;;3.97;1.77;;;;;;;26.56;33.52;97824.59;5058259;28;20047;-78
2021/05/27 10:28:31;;;;;;;3.75;1.80;;;;;;;25.28;34.99;97822.84;5062981;28;20469;-84
2021/05/27 10:30:58;;;;;;;2.22;1.35;;;;;;;24.27;37.42;97818.31;5060896;28;20036;-79
2021/05/27 10:33:25;;;;;;;7.63;1.70;;;;;;;23.57;38.99;97804.50;5063810;28;20016;-76
2021/05/27 10:35:55;;;;;;;2.30;1.40;;;;;;;22.83;40.83;97798.88;5047550;28;20016;-79
2021/05/27 10:38:42;;;;;;;3.60;1.73;;;;;;;22.24;41.51;97797.63;5067215;28;20104;-86
2021/05/27 10:41:07;;;;;;;4.38;1.75;;;;;;;22.20;42.54;97791.22;5056977;28;20021;-90
2021/05/27 10:43:33;;;;;;;3.25;1.48;;;;;;;22.38;42.92;97789.50;5061818;28;20393;-84
2021/05/27 10:46:07;;;;;;;3.05;1.63;;;;;;;22.46;41.80;97784.03;5060989;28;20037;-80
2021/05/27 10:48:47;;;;;;;3.67;2.03;;;;;;;21.84;42.77;97780.66;5052555;28;20054;-88
2021/05/27 10:51:43;;;;;;;3.33;2.05;;;;;;;22.14;42.57;97776.00;5082869;28;20028;-86
2021/05/27 10:54:13;;;;;;;2.60;1.80;;;;;;;22.39;43.21;97781.94;5076508;28;20025;-83
2021/05/27 10:56:41;;;;;;;4.68;1.50;;;;;;;22.78;42.12;97774.09;5078334;28;20033;-80
2021/05/27 10:59:08;;;;;;;2.03;1.13;;;;;;;22.88;40.09;97776.22;5074010;28;20035;-80
2021/05/27 11:01:34;;;;;;;2.42;1.52;;;;;;;22.65;40.71;97773.53;5071431;28;20556;-80
2021/05/27 11:04:21;;;;;;;2.55;1.38;;;;;;;22.97;40.52;97773.13;5092518;28;20020;-80
2021/05/27 11:06:49;;;;;;;2.60;1.30;;;;;;;23.54;41.64;97768.97;5093546;28;20032;-79
2021/05/27 11:09:19;;;;;;;3.28;1.50;;;;;;;23.21;39.05;97767.03;5081286;28;20118;-80
2021/05/27 11:11:57;;;;;;;3.42;1.55;;;;;;;22.72;39.21;97767.25;5082894;28;20032;-84
2021/05/27 11:14:50;;;;;;;2.03;1.67;;;;;;;22.80;39.58;97763.38;5090930;28;20481;-86
2021/05/27 11:17:18;;;;;;;1.60;1.20;;;;;;;22.81;39.90;97759.38;5094556;28;20027;-81
2021/05/27 11:19:55;;;;;;;2.80;1.70;;;;;;;22.57;40.59;97757.88;5093719;28;20138;-80
2021/05/27 11:25:07;;;;;;;4.00;1.58;;;;;;;22.71;39.60;97751.72;5093734;28;20079;-82
2021/05/27 11:27:34;;;;;;;3.05;1.58;;;;;;;23.00;39.19;97745.25;5094556;28;20129;-80
2021/05/27 11:30:18;;;;;;;4.00;1.77;;;;;;;23.02;38.42;97742.09;5093180;28;20028;-81
2021/05/27 11:33:04;;;;;;;3.95;1.35;;;;;;;23.21;39.77;97744.69;5091561;28;20036;-82
2021/05/27 11:35:48;;;;;;;6.90;1.50;;;;;;;23.21;39.68;97745.47;5093107;28;20032;-78
2021/05/27 11:38:14;;;;;;;4.82;1.50;;;;;;;23.07;39.63;97739.75;5093961;28;20020;-80
2021/05/27 11:40:42;;;;;;;3.95;1.40;;;;;;;23.53;39.23;97731.06;5093449;28;20063;-79
2021/05/27 11:43:09;;;;;;;1.90;1.10;;;;;;;23.68;38.21;97730.78;5090556;28;20021;-79
2021/05/27 11:45:50;;;;;;;2.20;1.60;;;;;;;23.96;37.79;97721.84;5081912;28;20118;-78
2021/05/27 11:48:38;;;;;;;2.22;1.15;;;;;;;23.36;38.60;97724.91;5081418;28;20114;-78